sensor_id;sensor_type;location;lat;lon;timestamp;pressure;altitude;pressure_sealevel;temperature;humidity
30516;BME280;17297;54.022;10.760;2023-02-21T00:02:11;101052.88;;;11.00;72.98
30516;BME280;17297;54.022;10.760;2023-02-21T00:04:55;101043.13;;;10.99;72.97
30516;BME280;17297;54.022;10.760;2023-02-21T00:07:40;101044.16;;;10.98;72.92
30516;BME280;17297;54.022;10.760;2023-02-21T00:10:24;101064.03;;;10.97;73.02
30516;BME280;17297;54.022;10.760;2023-02-21T00:13:08;101056.94;;;10.96;72.99
30516;BME280;17297;54.022;10.760;2023-02-21T00:15:52;101066.88;;;10.96;72.91
30516;BME280;17297;54.022;10.760;2023-02-21T00:18:37;101065.22;;;10.95;72.97
30516;BME280;17297;54.022;10.760;2023-02-21T00:21:21;101057.31;;;10.93;72.89
30516;BME280;17297;54.022;10.760;2023-02-21T00:24:06;101065.41;;;10.93;72.94
30516;BME280;17297;54.022;10.760;2023-02-21T00:26:50;101074.34;;;10.94;72.83
30516;BME280;17297;54.022;10.760;2023-02-21T00:29:34;101065.59;;;10.92;72.93
30516;BME280;17297;54.022;10.760;2023-02-21T00:32:19;101067.47;;;10.91;72.84
30516;BME280;17297;54.022;10.760;2023-02-21T00:35:04;101066.63;;;10.91;72.82
30516;BME280;17297;54.022;10.760;2023-02-21T00:37:52;101078.22;;;10.91;72.87
30516;BME280;17297;54.022;10.760;2023-02-21T00:40:36;101086.31;;;10.91;72.86
30516;BME280;17297;54.022;10.760;2023-02-21T00:43:27;101084.63;;;10.90;72.66
30516;BME280;17297;54.022;10.760;2023-02-21T00:46:11;101083.63;;;10.91;72.84
30516;BME280;17297;54.022;10.760;2023-02-21T00:48:55;101087.13;;;10.92;72.84
30516;BME280;17297;54.022;10.760;2023-02-21T00:51:39;101085.47;;;10.91;72.67
30516;BME280;17297;54.022;10.760;2023-02-21T00:54:24;101096.25;;;10.91;72.57
30516;BME280;17297;54.022;10.760;2023-02-21T00:57:07;101106.81;;;10.92;72.76
30516;BME280;17297;54.022;10.760;2023-02-21T00:59:51;101097.06;;;10.91;72.55
30516;BME280;17297;54.022;10.760;2023-02-21T01:02:35;101099.75;;;10.91;72.54
30516;BME280;17297;54.022;10.760;2023-02-21T01:05:19;101098.94;;;10.91;72.63
30516;BME280;17297;54.022;10.760;2023-02-21T01:08:03;101102.47;;;10.91;72.68
30516;BME280;17297;54.022;10.760;2023-02-21T01:10:47;101102.47;;;10.91;72.51
30516;BME280;17297;54.022;10.760;2023-02-21T01:13:31;101105.16;;;10.91;72.47
30516;BME280;17297;54.022;10.760;2023-02-21T01:16:16;101103.28;;;10.92;72.60
30516;BME280;17297;54.022;10.760;2023-02-21T01:19:00;101105.97;;;10.92;72.62
30516;BME280;17297;54.022;10.760;2023-02-21T01:21:44;101096.88;;;10.93;72.62
30516;BME280;17297;54.022;10.760;2023-02-21T01:24:28;101104.94;;;10.93;72.39
30516;BME280;17297;54.022;10.760;2023-02-21T01:27:12;101091.69;;;10.91;72.38
30516;BME280;17297;54.022;10.760;2023-02-21T01:29:56;101088.16;;;10.91;72.54
30516;BME280;17297;54.022;10.760;2023-02-21T01:32:39;101087.31;;;10.90;72.47
30516;BME280;17297;54.022;10.760;2023-02-21T01:35:25;101093.72;;;10.89;72.42
30516;BME280;17297;54.022;10.760;2023-02-21T01:38:09;101088.53;;;10.88;72.32
30516;BME280;17297;54.022;10.760;2023-02-21T01:40:52;101095.13;;;10.85;72.05
30516;BME280;17297;54.022;10.760;2023-02-21T01:43:36;101099.00;;;10.82;72.09
30516;BME280;17297;54.022;10.760;2023-02-21T01:46:20;101083.03;;;10.81;72.06
30516;BME280;17297;54.022;10.760;2023-02-21T01:49:16;101084.44;;;10.77;72.13
30516;BME280;17297;54.022;10.760;2023-02-21T01:52:03;101086.50;;;10.75;71.97
30516;BME280;17297;54.022;10.760;2023-02-21T01:54:50;101075.25;;;10.71;71.84
30516;BME280;17297;54.022;10.760;2023-02-21T01:57:37;101081.88;;;10.69;71.82
30516;BME280;17297;54.022;10.760;2023-02-21T02:00:21;101066.91;;;10.66;71.67
30516;BME280;17297;54.022;10.760;2023-02-21T02:03:10;101065.44;;;10.63;71.69
30516;BME280;17297;54.022;10.760;2023-02-21T02:06:00;101069.31;;;10.61;71.53
30516;BME280;17297;54.022;10.760;2023-02-21T02:08:45;101066.84;;;10.59;71.57
30516;BME280;17297;54.022;10.760;2023-02-21T02:34:31;101041.31;;;10.55;71.34
30516;BME280;17297;54.022;10.760;2023-02-21T02:37:08;101021.47;;;10.56;71.41
30516;BME280;17297;54.022;10.760;2023-02-21T02:40:08;101023.31;;;10.56;71.26
30516;BME280;17297;54.022;10.760;2023-02-21T02:42:52;101026.19;;;10.54;71.25
30516;BME280;17297;54.022;10.760;2023-02-21T02:45:33;101042.34;;;10.54;71.28
30516;BME280;17297;54.022;10.760;2023-02-21T02:48:32;101030.75;;;10.54;71.22
30516;BME280;17297;54.022;10.760;2023-02-21T02:51:02;101034.25;;;10.54;71.08
30516;BME280;17297;54.022;10.760;2023-02-21T02:53:31;101024.34;;;10.55;71.18
30516;BME280;17297;54.022;10.760;2023-02-21T02:56:00;101035.91;;;10.55;71.11
30516;BME280;17297;54.022;10.760;2023-02-21T02:58:31;101041.31;;;10.55;71.24
30516;BME280;17297;54.022;10.760;2023-02-21T03:01:18;101042.13;;;10.56;71.26
30516;BME280;17297;54.022;10.760;2023-02-21T03:04:00;101022.47;;;10.55;70.99
30516;BME280;17297;54.022;10.760;2023-02-21T03:06:52;101045.69;;;10.56;71.27
30516;BME280;17297;54.022;10.760;2023-02-21T03:12:06;101034.25;;;10.54;70.96
30516;BME280;17297;54.022;10.760;2023-02-21T03:14:40;101038.63;;;10.55;70.93
30516;BME280;17297;54.022;10.760;2023-02-21T03:17:12;101034.06;;;10.56;70.89
30516;BME280;17297;54.022;10.760;2023-02-21T03:19:45;101026.84;;;10.56;70.85
30516;BME280;17297;54.022;10.760;2023-02-21T03:22:14;101027.84;;;10.55;70.93
30516;BME280;17297;54.022;10.760;2023-02-21T03:24:43;101017.09;;;10.55;70.72
30516;BME280;17297;54.022;10.760;2023-02-21T03:27:11;101015.44;;;10.54;70.77
30516;BME280;17297;54.022;10.760;2023-02-21T03:29:59;101022.47;;;10.55;70.59
30516;BME280;17297;54.022;10.760;2023-02-21T03:32:31;101021.84;;;10.53;70.78
30516;BME280;17297;54.022;10.760;2023-02-21T03:35:00;101022.66;;;10.54;70.58
30516;BME280;17297;54.022;10.760;2023-02-21T03:37:33;101027.59;;;10.50;70.53
30516;BME280;17297;54.022;10.760;2023-02-21T03:40:00;101027.59;;;10.50;70.40
30516;BME280;17297;54.022;10.760;2023-02-21T03:42:27;101023.41;;;10.48;70.48
30516;BME280;17297;54.022;10.760;2023-02-21T03:44:53;101028.78;;;10.48;70.28
30516;BME280;17297;54.022;10.760;2023-02-21T03:47:19;101028.13;;;10.46;70.41
30516;BME280;17297;54.022;10.760;2023-02-21T03:49:44;101029.16;;;10.45;70.13
30516;BME280;17297;54.022;10.760;2023-02-21T03:52:11;101034.72;;;10.43;70.10
30516;BME280;17297;54.022;10.760;2023-02-21T03:54:38;101041.94;;;10.43;70.00
30516;BME280;17297;54.022;10.760;2023-02-21T03:57:05;101044.00;;;10.40;70.13
30516;BME280;17297;54.022;10.760;2023-02-21T03:59:37;101037.78;;;10.40;70.26
30516;BME280;17297;54.022;10.760;2023-02-21T04:02:03;101037.97;;;10.38;69.99
30516;BME280;17297;54.022;10.760;2023-02-21T04:04:31;101046.22;;;10.37;69.83
30516;BME280;17297;54.022;10.760;2023-02-21T04:07:05;101046.41;;;10.35;69.93
30516;BME280;17297;54.022;10.760;2023-02-21T04:09:32;101054.63;;;10.34;69.74
30516;BME280;17297;54.022;10.760;2023-02-21T04:11:57;101055.66;;;10.33;69.79
30516;BME280;17297;54.022;10.760;2023-02-21T04:14:24;101057.53;;;10.32;69.94
30516;BME280;17297;54.022;10.760;2023-02-21T04:16:49;101062.91;;;10.32;69.61
30516;BME280;17297;54.022;10.760;2023-02-21T04:19:16;101060.38;;;10.31;69.78
30516;BME280;17297;54.022;10.760;2023-02-21T04:21:42;101064.94;;;10.30;69.60
30516;BME280;17297;54.022;10.760;2023-02-21T04:24:08;101076.72;;;10.29;69.63
30516;BME280;17297;54.022;10.760;2023-02-21T04:26:34;101073.00;;;10.30;69.61
30516;BME280;17297;54.022;10.760;2023-02-21T04:29:00;101094.72;;;10.29;69.58
30516;BME280;17297;54.022;10.760;2023-02-21T04:31:27;101095.53;;;10.29;69.64
30516;BME280;17297;54.022;10.760;2023-02-21T04:33:52;101102.94;;;10.27;69.45
30516;BME280;17297;54.022;10.760;2023-02-21T04:36:24;101102.13;;;10.27;69.58
30516;BME280;17297;54.022;10.760;2023-02-21T04:38:52;101101.09;;;10.28;69.43
30516;BME280;17297;54.022;10.760;2023-02-21T04:41:17;101096.75;;;10.27;69.40
30516;BME280;17297;54.022;10.760;2023-02-21T04:43:43;101096.91;;;10.25;69.50
30516;BME280;17297;54.022;10.760;2023-02-21T04:46:13;101091.69;;;10.24;69.36
30516;BME280;17297;54.022;10.760;2023-02-21T04:48:43;101089.19;;;10.22;69.33
30516;BME280;17297;54.022;10.760;2023-02-21T04:51:10;101092.88;;;10.21;69.16
30516;BME280;17297;54.022;10.760;2023-02-21T04:53:35;101094.06;;;10.18;69.35
30516;BME280;17297;54.022;10.760;2023-02-21T04:56:01;101108.38;;;10.19;69.15
30516;BME280;17297;54.022;10.760;2023-02-21T04:58:26;101102.16;;;10.18;69.29
30516;BME280;17297;54.022;10.760;2023-02-21T05:00:51;101124.50;;;10.19;69.29
30516;BME280;17297;54.022;10.760;2023-02-21T05:03:17;101130.06;;;10.17;69.12
30516;BME280;17297;54.022;10.760;2023-02-21T05:05:43;101128.19;;;10.18;69.15
30516;BME280;17297;54.022;10.760;2023-02-21T05:08:08;101131.91;;;10.17;69.01
30516;BME280;17297;54.022;10.760;2023-02-21T05:10:34;101132.94;;;10.16;69.09
30516;BME280;17297;54.022;10.760;2023-02-21T05:13:00;101134.59;;;10.17;68.94
30516;BME280;17297;54.022;10.760;2023-02-21T05:15:25;101138.13;;;10.17;69.00
30516;BME280;17297;54.022;10.760;2023-02-21T05:17:51;101144.16;;;10.20;69.13
30516;BME280;17297;54.022;10.760;2023-02-21T05:20:16;101150.53;;;10.18;69.03
30516;BME280;17297;54.022;10.760;2023-02-21T05:22:42;101146.03;;;10.19;68.79
30516;BME280;17297;54.022;10.760;2023-02-21T05:25:16;101155.75;;;10.20;68.99
30516;BME280;17297;54.022;10.760;2023-02-21T05:27:42;101149.53;;;10.20;68.91
30516;BME280;17297;54.022;10.760;2023-02-21T05:30:08;101153.06;;;10.20;68.70
30516;BME280;17297;54.022;10.760;2023-02-21T05:32:34;101154.91;;;10.20;68.92
30516;BME280;17297;54.022;10.760;2023-02-21T05:35:00;101161.97;;;10.21;68.78
30516;BME280;17297;54.022;10.760;2023-02-21T05:37:25;101163.81;;;10.20;68.70
30516;BME280;17297;54.022;10.760;2023-02-21T05:39:51;101164.66;;;10.21;68.62
30516;BME280;17297;54.022;10.760;2023-02-21T05:42:17;101166.50;;;10.20;68.69
30516;BME280;17297;54.022;10.760;2023-02-21T05:44:44;101166.50;;;10.20;68.47
30516;BME280;17297;54.022;10.760;2023-02-21T05:47:11;101170.03;;;10.21;68.49
30516;BME280;17297;54.022;10.760;2023-02-21T05:49:36;101168.16;;;10.21;68.48
30516;BME280;17297;54.022;10.760;2023-02-21T05:52:02;101168.16;;;10.21;68.69
30516;BME280;17297;54.022;10.760;2023-02-21T05:54:29;101169.19;;;10.20;68.43
30516;BME280;17297;54.022;10.760;2023-02-21T05:56:54;101163.97;;;10.18;68.43
30516;BME280;17297;54.022;10.760;2023-02-21T05:59:20;101175.59;;;10.19;68.48
30516;BME280;17297;54.022;10.760;2023-02-21T06:01:47;101170.38;;;10.17;68.35
30516;BME280;17297;54.022;10.760;2023-02-21T06:04:13;101165.00;;;10.17;68.23
30516;BME280;17297;54.022;10.760;2023-02-21T06:06:38;101175.97;;;10.16;68.17
30516;BME280;17297;54.022;10.760;2023-02-21T06:09:05;101181.50;;;10.14;68.42
30516;BME280;17297;54.022;10.760;2023-02-21T06:11:32;101174.63;;;10.12;68.14
30516;BME280;17297;54.022;10.760;2023-02-21T06:13:59;101181.84;;;10.11;68.15
30516;BME280;17297;54.022;10.760;2023-02-21T06:16:26;101181.22;;;10.09;68.14
30516;BME280;17297;54.022;10.760;2023-02-21T06:18:54;101177.03;;;10.07;68.13
30516;BME280;17297;54.022;10.760;2023-02-21T06:21:20;101192.31;;;10.06;68.11
30516;BME280;17297;54.022;10.760;2023-02-21T06:23:46;101179.06;;;10.05;68.09
30516;BME280;17297;54.022;10.760;2023-02-21T06:26:13;101193.50;;;10.04;68.25
30516;BME280;17297;54.022;10.760;2023-02-21T06:28:38;101195.38;;;10.03;68.24
30516;BME280;17297;54.022;10.760;2023-02-21T06:31:05;101197.19;;;10.03;68.13
30516;BME280;17297;54.022;10.760;2023-02-21T06:33:30;101195.53;;;10.02;68.21
30516;BME280;17297;54.022;10.760;2023-02-21T06:35:56;101197.19;;;10.03;68.06
30516;BME280;17297;54.022;10.760;2023-02-21T06:38:22;101198.06;;;10.03;68.22
30516;BME280;17297;54.022;10.760;2023-02-21T06:40:47;101199.88;;;10.03;68.06
30516;BME280;17297;54.022;10.760;2023-02-21T06:43:13;101192.50;;;10.05;67.99
30516;BME280;17297;54.022;10.760;2023-02-21T06:45:39;101201.22;;;10.07;68.02
30516;BME280;17297;54.022;10.760;2023-02-21T06:48:04;101201.69;;;10.10;68.03
30516;BME280;17297;54.022;10.760;2023-02-21T06:50:32;101210.25;;;10.14;68.04
30516;BME280;17297;54.022;10.760;2023-02-21T06:52:59;101211.75;;;10.16;67.91
30516;BME280;17297;54.022;10.760;2023-02-21T06:55:24;101218.41;;;10.21;67.85
30516;BME280;17297;54.022;10.760;2023-02-21T06:57:50;101209.66;;;10.27;67.82
30516;BME280;17297;54.022;10.760;2023-02-21T07:00:16;101213.31;;;10.34;67.89
30516;BME280;17297;54.022;10.760;2023-02-21T07:02:42;101217.44;;;10.45;68.00
30516;BME280;17297;54.022;10.760;2023-02-21T07:05:09;101218.00;;;10.55;67.90
30516;BME280;17297;54.022;10.760;2023-02-21T07:07:35;101219.72;;;10.71;67.93
30516;BME280;17297;54.022;10.760;2023-02-21T07:10:00;101234.81;;;10.95;68.05
30516;BME280;17297;54.022;10.760;2023-02-21T07:12:26;101227.31;;;11.20;67.72
30516;BME280;17297;54.022;10.760;2023-02-21T07:14:53;101240.75;;;11.49;67.56
30516;BME280;17297;54.022;10.760;2023-02-21T07:17:18;101235.13;;;11.80;67.31
30516;BME280;17297;54.022;10.760;2023-02-21T07:19:44;101232.03;;;12.13;67.03
30516;BME280;17297;54.022;10.760;2023-02-21T07:22:10;101239.81;;;12.44;66.68
30516;BME280;17297;54.022;10.760;2023-02-21T07:24:35;101241.50;;;12.74;66.19
30516;BME280;17297;54.022;10.760;2023-02-21T07:27:01;101241.91;;;12.99;65.94
30516;BME280;17297;54.022;10.760;2023-02-21T07:29:27;101238.38;;;13.26;65.62
30516;BME280;17297;54.022;10.760;2023-02-21T07:31:52;101234.59;;;13.55;65.42
30516;BME280;17297;54.022;10.760;2023-02-21T07:34:18;101236.56;;;13.81;65.05
30516;BME280;17297;54.022;10.760;2023-02-21T07:36:47;101236.22;;;14.04;64.32
30516;BME280;17297;54.022;10.760;2023-02-21T07:39:13;101240.41;;;14.20;64.08
30516;BME280;17297;54.022;10.760;2023-02-21T07:41:39;101240.25;;;14.35;63.79
30516;BME280;17297;54.022;10.760;2023-02-21T07:44:08;101249.69;;;14.52;63.30
30516;BME280;17297;54.022;10.760;2023-02-21T07:46:34;101254.69;;;14.55;62.73
30516;BME280;17297;54.022;10.760;2023-02-21T07:48:59;101244.84;;;14.41;62.43
30516;BME280;17297;54.022;10.760;2023-02-21T07:51:31;101259.34;;;14.20;62.46
30516;BME280;17297;54.022;10.760;2023-02-21T07:53:56;101266.84;;;14.05;62.58
30516;BME280;17297;54.022;10.760;2023-02-21T07:56:22;101265.09;;;13.91;62.63
30516;BME280;17297;54.022;10.760;2023-02-21T07:58:48;101265.91;;;13.78;62.60
30516;BME280;17297;54.022;10.760;2023-02-21T08:01:14;101269.97;;;13.67;62.83
30516;BME280;17297;54.022;10.760;2023-02-21T08:03:40;101280.56;;;13.55;62.64
30516;BME280;17297;54.022;10.760;2023-02-21T08:06:07;101288.38;;;13.44;62.74
30516;BME280;17297;54.022;10.760;2023-02-21T08:08:33;101282.03;;;13.30;62.78
30516;BME280;17297;54.022;10.760;2023-02-21T08:10:59;101292.09;;;13.14;62.83
30516;BME280;17297;54.022;10.760;2023-02-21T08:13:24;101287.63;;;13.00;62.80
30516;BME280;17297;54.022;10.760;2023-02-21T08:15:49;101296.91;;;12.91;62.86
30516;BME280;17297;54.022;10.760;2023-02-21T08:18:18;101287.28;;;12.82;63.08
30516;BME280;17297;54.022;10.760;2023-02-21T08:20:45;101301.34;;;12.77;63.02
30516;BME280;17297;54.022;10.760;2023-02-21T08:23:11;101309.00;;;12.74;63.20
30516;BME280;17297;54.022;10.760;2023-02-21T08:25:37;101319.16;;;12.71;63.11
30516;BME280;17297;54.022;10.760;2023-02-21T08:28:03;101306.22;;;12.67;63.26
30516;BME280;17297;54.022;10.760;2023-02-21T08:30:29;101330.91;;;12.64;63.28
30516;BME280;17297;54.022;10.760;2023-02-21T08:32:54;101333.22;;;12.67;63.32
30516;BME280;17297;54.022;10.760;2023-02-21T08:35:20;101327.44;;;12.70;63.01
30516;BME280;17297;54.022;10.760;2023-02-21T08:37:47;101329.69;;;12.66;62.89
30516;BME280;17297;54.022;10.760;2023-02-21T08:40:14;101335.03;;;12.60;63.00
30516;BME280;17297;54.022;10.760;2023-02-21T08:42:39;101333.47;;;12.51;62.87
30516;BME280;17297;54.022;10.760;2023-02-21T08:45:06;101330.88;;;12.42;62.99
30516;BME280;17297;54.022;10.760;2023-02-21T08:47:35;101334.94;;;12.32;63.25
30516;BME280;17297;54.022;10.760;2023-02-21T08:50:00;101344.81;;;12.24;63.24
30516;BME280;17297;54.022;10.760;2023-02-21T08:52:26;101339.53;;;12.16;63.53
30516;BME280;17297;54.022;10.760;2023-02-21T08:54:52;101344.84;;;12.10;63.19
30516;BME280;17297;54.022;10.760;2023-02-21T08:57:17;101354.72;;;12.02;63.39
30516;BME280;17297;54.022;10.760;2023-02-21T08:59:43;101357.28;;;11.96;63.37
30516;BME280;17297;54.022;10.760;2023-02-21T09:02:23;101360.94;;;11.88;63.77
30516;BME280;17297;54.022;10.760;2023-02-21T09:04:53;101366.69;;;11.85;63.85
30516;BME280;17297;54.022;10.760;2023-02-21T09:07:20;101364.34;;;11.82;63.71
30516;BME280;17297;54.022;10.760;2023-02-21T09:09:46;101373.63;;;11.79;63.81
30516;BME280;17297;54.022;10.760;2023-02-21T09:12:12;101366.38;;;11.80;63.85
30516;BME280;17297;54.022;10.760;2023-02-21T09:14:39;101360.81;;;11.82;63.87
30516;BME280;17297;54.022;10.760;2023-02-21T09:17:07;101357.94;;;11.83;64.04
30516;BME280;17297;54.022;10.760;2023-02-21T09:19:33;101354.06;;;11.86;64.03
30516;BME280;17297;54.022;10.760;2023-02-21T09:21:59;101357.41;;;11.88;63.99
30516;BME280;17297;54.022;10.760;2023-02-21T09:24:26;101354.50;;;11.89;64.00
30516;BME280;17297;54.022;10.760;2023-02-21T09:26:56;101351.66;;;11.91;63.85
30516;BME280;17297;54.022;10.760;2023-02-21T09:29:32;101354.13;;;11.92;63.96
30516;BME280;17297;54.022;10.760;2023-02-21T09:31:59;101359.38;;;11.94;64.04
30516;BME280;17297;54.022;10.760;2023-02-21T09:34:25;101368.28;;;11.94;64.05
30516;BME280;17297;54.022;10.760;2023-02-21T09:36:50;101368.94;;;11.96;63.83
30516;BME280;17297;54.022;10.760;2023-02-21T09:39:17;101373.69;;;11.94;63.99
30516;BME280;17297;54.022;10.760;2023-02-21T09:41:43;101372.84;;;11.94;64.02
30516;BME280;17297;54.022;10.760;2023-02-21T09:44:14;101381.09;;;11.92;63.87
30516;BME280;17297;54.022;10.760;2023-02-21T09:46:45;101372.19;;;11.92;64.00
30516;BME280;17297;54.022;10.760;2023-02-21T09:51:43;101372.19;;;11.92;63.80
30516;BME280;17297;54.022;10.760;2023-02-21T09:54:26;101374.06;;;11.91;63.92
30516;BME280;17297;54.022;10.760;2023-02-21T09:56:53;101380.09;;;11.93;64.06
30516;BME280;17297;54.022;10.760;2023-02-21T09:59:21;101389.03;;;11.94;63.82
30516;BME280;17297;54.022;10.760;2023-02-21T10:04:37;101380.94;;;11.94;64.00
30516;BME280;17297;54.022;10.760;2023-02-21T10:07:14;101390.69;;;11.95;63.83
30516;BME280;17297;54.022;10.760;2023-02-21T10:09:57;101385.13;;;11.96;63.82
30516;BME280;17297;54.022;10.760;2023-02-21T10:12:39;101382.44;;;11.96;63.74
30516;BME280;17297;54.022;10.760;2023-02-21T10:18:07;101379.34;;;11.99;63.74
30516;BME280;17297;54.022;10.760;2023-02-21T10:20:41;101377.13;;;12.03;63.84
30516;BME280;17297;54.022;10.760;2023-02-21T10:23:33;101395.41;;;12.08;63.97
30516;BME280;17297;54.022;10.760;2023-02-21T10:26:04;101388.63;;;12.12;63.61
30516;BME280;17297;54.022;10.760;2023-02-21T10:28:34;101390.94;;;12.15;63.66
30516;BME280;17297;54.022;10.760;2023-02-21T10:31:04;101401.34;;;12.18;63.60
30516;BME280;17297;54.022;10.760;2023-02-21T10:33:32;101395.59;;;12.21;63.56
30516;BME280;17297;54.022;10.760;2023-02-21T10:36:12;101396.06;;;12.24;63.54
30516;BME280;17297;54.022;10.760;2023-02-21T10:38:40;101399.22;;;12.28;63.27
30516;BME280;17297;54.022;10.760;2023-02-21T10:41:06;101400.72;;;12.31;63.34
30516;BME280;17297;54.022;10.760;2023-02-21T10:43:48;101402.38;;;12.32;63.22
30516;BME280;17297;54.022;10.760;2023-02-21T10:46:30;101404.88;;;12.33;62.99
30516;BME280;17297;54.022;10.760;2023-02-21T10:49:28;101417.34;;;12.34;63.15
30516;BME280;17297;54.022;10.760;2023-02-21T10:52:15;101409.44;;;12.33;63.17
30516;BME280;17297;54.022;10.760;2023-02-21T10:57:26;101410.66;;;12.30;62.84
30516;BME280;17297;54.022;10.760;2023-02-21T10:59:52;101403.78;;;12.28;62.76
30516;BME280;17297;54.022;10.760;2023-02-21T11:02:31;101417.81;;;12.23;62.75
30516;BME280;17297;54.022;10.760;2023-02-21T11:05:16;101428.81;;;12.21;62.69
30516;BME280;17297;54.022;10.760;2023-02-21T11:08:04;101416.53;;;12.19;62.59
30516;BME280;17297;54.022;10.760;2023-02-21T11:10:40;101414.22;;;12.16;62.52
30516;BME280;17297;54.022;10.760;2023-02-21T11:15:32;101421.38;;;12.09;62.20
30516;BME280;17297;54.022;10.760;2023-02-21T11:18:04;101425.28;;;12.06;62.37
30516;BME280;17297;54.022;10.760;2023-02-21T11:20:30;101413.84;;;12.04;62.21
30516;BME280;17297;54.022;10.760;2023-02-21T11:22:56;101424.44;;;12.06;62.46
30516;BME280;17297;54.022;10.760;2023-02-21T11:25:37;101423.41;;;12.07;62.57
30516;BME280;17297;54.022;10.760;2023-02-21T11:33:18;101422.38;;;12.22;62.71
30516;BME280;17297;54.022;10.760;2023-02-21T11:35:49;101427.03;;;12.29;62.40
30516;BME280;17297;54.022;10.760;2023-02-21T11:38:34;101430.19;;;12.32;62.68
30516;BME280;17297;54.022;10.760;2023-02-21T11:41:02;101438.72;;;12.36;62.39
30516;BME280;17297;54.022;10.760;2023-02-21T11:43:32;101432.78;;;12.40;62.20
30516;BME280;17297;54.022;10.760;2023-02-21T11:46:05;101436.56;;;12.46;62.11
30516;BME280;17297;54.022;10.760;2023-02-21T11:51:28;101432.19;;;12.60;62.22
30516;BME280;17297;54.022;10.760;2023-02-21T11:53:56;101416.72;;;12.68;62.12
30516;BME280;17297;54.022;10.760;2023-02-21T12:01:43;101424.59;;;12.85;61.87
30516;BME280;17297;54.022;10.760;2023-02-21T12:06:58;101431.31;;;12.95;61.86
30516;BME280;17297;54.022;10.760;2023-02-21T12:12:40;101421.44;;;13.03;61.54
30516;BME280;17297;54.022;10.760;2023-02-21T12:26:57;101420.78;;;13.01;61.19
30516;BME280;17297;54.022;10.760;2023-02-21T12:38:36;101421.81;;;12.78;60.95
30516;BME280;17297;54.022;10.760;2023-02-21T12:44:18;101427.16;;;12.71;60.97
30516;BME280;17297;54.022;10.760;2023-02-21T12:47:27;101422.56;;;12.72;61.06
30516;BME280;17297;54.022;10.760;2023-02-21T12:50:00;101422.75;;;12.70;60.93
30516;BME280;17297;54.022;10.760;2023-02-21T12:53:15;101429.84;;;12.71;60.96
30516;BME280;17297;54.022;10.760;2023-02-21T12:57:52;101420.25;;;12.69;60.85
30516;BME280;17297;54.022;10.760;2023-02-21T13:00:24;101429.38;;;12.68;60.51
30516;BME280;17297;54.022;10.760;2023-02-21T13:05:46;101442.22;;;12.66;60.81
30516;BME280;17297;54.022;10.760;2023-02-21T13:08:29;101439.69;;;12.64;60.40
30516;BME280;17297;54.022;10.760;2023-02-21T13:11:23;101451.38;;;12.65;60.72
30516;BME280;17297;54.022;10.760;2023-02-21T13:13:49;101446.78;;;12.65;60.45
30516;BME280;17297;54.022;10.760;2023-02-21T13:16:16;101437.88;;;12.65;60.37
30516;BME280;17297;54.022;10.760;2023-02-21T13:18:55;101448.66;;;12.65;60.61
30516;BME280;17297;54.022;10.760;2023-02-21T13:29:42;101443.06;;;12.66;60.34
30516;BME280;17297;54.022;10.760;2023-02-21T13:32:14;101441.19;;;12.67;60.25
30516;BME280;17297;54.022;10.760;2023-02-21T13:34:52;101438.50;;;12.67;60.34
30516;BME280;17297;54.022;10.760;2023-02-21T13:37:24;101436.63;;;12.67;60.29
30516;BME280;17297;54.022;10.760;2023-02-21T13:39:55;101443.88;;;12.67;60.27
30516;BME280;17297;54.022;10.760;2023-02-21T13:42:26;101444.72;;;12.67;60.32
30516;BME280;17297;54.022;10.760;2023-02-21T13:45:16;101444.72;;;12.67;60.38
30516;BME280;17297;54.022;10.760;2023-02-21T13:53:15;101451.16;;;12.66;60.33
30516;BME280;17297;54.022;10.760;2023-02-21T13:58:36;101449.28;;;12.67;60.61
30516;BME280;17297;54.022;10.760;2023-02-21T14:01:19;101449.88;;;12.62;60.31
30516;BME280;17297;54.022;10.760;2023-02-21T14:03:49;101448.38;;;12.60;60.16
30516;BME280;17297;54.022;10.760;2023-02-21T14:06:24;101450.25;;;12.59;60.37
30516;BME280;17297;54.022;10.760;2023-02-21T14:09:02;101448.56;;;12.58;59.97
30516;BME280;17297;54.022;10.760;2023-02-21T14:11:35;101451.47;;;12.57;59.72
30516;BME280;17297;54.022;10.760;2023-02-21T14:14:30;101445.22;;;12.56;59.72
30516;BME280;17297;54.022;10.760;2023-02-21T14:17:11;101449.97;;;12.54;59.86
30516;BME280;17297;54.022;10.760;2023-02-21T14:22:29;101443.09;;;12.52;59.73
30516;BME280;17297;54.022;10.760;2023-02-21T14:25:12;101451.38;;;12.50;59.46
30516;BME280;17297;54.022;10.760;2023-02-21T14:27:40;101446.81;;;12.51;59.55
30516;BME280;17297;54.022;10.760;2023-02-21T14:32:43;101440.38;;;12.52;59.28
30516;BME280;17297;54.022;10.760;2023-02-21T14:35:20;101444.56;;;12.54;59.36
30516;BME280;17297;54.022;10.760;2023-02-21T14:37:53;101443.53;;;12.55;59.32
30516;BME280;17297;54.022;10.760;2023-02-21T14:48:43;101448.75;;;12.57;59.07
30516;BME280;17297;54.022;10.760;2023-02-21T15:03:14;101449.44;;;12.44;58.79
30516;BME280;17297;54.022;10.760;2023-02-21T15:08:22;101454.56;;;12.39;58.49
30516;BME280;17297;54.022;10.760;2023-02-21T15:10:51;101452.06;;;12.37;58.55
30516;BME280;17297;54.022;10.760;2023-02-21T15:13:25;101446.00;;;12.35;58.33
30516;BME280;17297;54.022;10.760;2023-02-21T15:16:01;101454.28;;;12.34;58.38
30516;BME280;17297;54.022;10.760;2023-02-21T15:27:34;101463.31;;;12.26;58.37
30516;BME280;17297;54.022;10.760;2023-02-21T15:30:13;101459.94;;;12.24;58.43